Terminal Aerodrome Forecast
Issued by NWS Wilmington, OH

Current Version | Previous Version | Graphics & Text | Print | Product List | Glossary On
Versions: 1 2 3 4 5 6 7 8 9 10 11 12 13 14 15 16 17 18 19 20 21
131
FTUS41 KILN 242331
TAFDAY
TAF
KDAY 242331Z 2500/2524 21012G20KT 6SM -TSRA BR SCT025 OVC040CB
      TEMPO 2500/2502 2SM +TSRA BR OVC025CB
     FM250600 27015G25KT P6SM OVC040
     FM251400 26017G27KT P6SM OVC025
     FM251900 27017G27KT P6SM OVC035=

USA.gov is the U.S. government's official web portal to all federal, state and local government web resources and services.